createdAt,value
2019-05-15T00:01:43.003Z,99.90
2019-05-15T00:04:12.657Z,99.90
2019-05-15T00:06:49.849Z,99.90
2019-05-15T00:09:22.424Z,99.90
2019-05-15T00:11:51.932Z,99.90
2019-05-15T00:14:22.576Z,99.90
2019-05-15T00:16:52.041Z,99.90
2019-05-15T00:19:21.520Z,99.90
2019-05-15T00:21:51.039Z,99.90
2019-05-15T00:24:20.504Z,99.90
2019-05-15T00:26:50.056Z,99.90
2019-05-15T00:29:19.959Z,99.90
2019-05-15T00:31:50.802Z,99.90
2019-05-15T00:34:20.357Z,99.90
2019-05-15T00:36:49.824Z,99.90
2019-05-15T00:39:19.298Z,99.90
2019-05-15T00:41:54.416Z,99.90
2019-05-15T00:44:19.819Z,99.90
2019-05-15T00:46:49.275Z,99.90
2019-05-15T00:49:19.023Z,99.90
2019-05-15T00:51:48.883Z,99.90
2019-05-15T00:54:19.471Z,99.90
2019-05-15T00:56:48.918Z,99.90
2019-05-15T00:59:26.321Z,99.90
2019-05-15T01:01:49.445Z,99.90
2019-05-15T01:04:18.974Z,99.90
2019-05-15T01:06:49.797Z,99.90
2019-05-15T01:09:19.594Z,99.90
2019-05-15T01:11:49.030Z,99.90
2019-05-15T01:14:18.701Z,99.90
2019-05-15T01:16:48.960Z,99.90
2019-05-15T01:19:18.769Z,99.90
2019-05-15T01:21:48.299Z,99.90
2019-05-15T01:24:18.856Z,99.90
2019-05-15T01:26:49.233Z,99.90
2019-05-15T01:29:19.019Z,99.90
2019-05-15T01:31:49.029Z,99.90
2019-05-15T01:34:18.687Z,99.90
2019-05-15T01:36:49.231Z,99.90
2019-05-15T01:39:18.724Z,99.90
2019-05-15T01:41:49.556Z,99.90
2019-05-15T01:44:19.334Z,99.90
2019-05-15T01:46:48.881Z,99.90
2019-05-15T01:49:18.782Z,99.90
2019-05-15T01:51:48.363Z,99.90
2019-05-15T01:54:18.647Z,99.90
2019-05-15T01:56:49.516Z,99.90
2019-05-15T01:59:20.306Z,99.90
2019-05-15T02:01:49.847Z,99.90
2019-05-15T02:04:19.810Z,99.90
2019-05-15T02:06:49.436Z,99.90
2019-05-15T02:09:18.892Z,99.90
2019-05-15T02:11:48.965Z,99.90
2019-05-15T02:14:19.093Z,99.90
2019-05-15T02:16:48.763Z,99.90
2019-05-15T02:19:19.385Z,99.90
2019-05-15T02:21:49.178Z,99.90
2019-05-15T02:24:19.019Z,99.90
2019-05-15T02:26:48.764Z,99.90
2019-05-15T02:29:24.218Z,99.90
2019-05-15T02:31:54.870Z,99.90
2019-05-15T02:34:24.330Z,99.90
2019-05-15T02:36:53.720Z,99.90
2019-05-15T02:39:23.163Z,99.90
2019-05-15T02:41:52.611Z,99.90
2019-05-15T02:44:22.057Z,99.90
2019-05-15T02:46:51.494Z,99.90
2019-05-15T02:49:20.968Z,99.90
2019-05-15T02:51:50.397Z,99.90
2019-05-15T02:54:19.901Z,99.90
2019-05-15T02:56:50.374Z,99.90
2019-05-15T02:59:19.836Z,99.90
2019-05-15T03:01:49.611Z,99.90
2019-05-15T03:04:20.020Z,99.90
2019-05-15T03:06:49.960Z,99.90
2019-05-15T03:09:19.628Z,99.90
2019-05-15T03:11:49.693Z,99.90
2019-05-15T03:14:21.425Z,99.90
2019-05-15T03:16:51.504Z,99.90
2019-05-15T03:19:20.934Z,99.90
2019-05-15T03:21:50.394Z,99.90
2019-05-15T03:24:20.192Z,99.90
2019-05-15T03:26:49.922Z,99.90
2019-05-15T03:29:21.139Z,99.90
2019-05-15T03:32:07.652Z,99.90
2019-05-15T03:34:28.811Z,99.90
2019-05-15T03:36:53.497Z,99.90
2019-05-15T03:39:23.504Z,99.90
2019-05-15T03:41:53.039Z,99.90
2019-05-15T03:44:22.485Z,99.90
2019-05-15T03:46:51.983Z,99.90
2019-05-15T03:49:21.459Z,99.90
2019-05-15T03:51:50.909Z,99.90
2019-05-15T03:54:20.575Z,99.90
2019-05-15T03:56:50.305Z,99.90
2019-05-15T03:59:19.786Z,99.90
2019-05-15T04:01:49.828Z,99.90
2019-05-15T04:04:20.721Z,99.90
2019-05-15T04:06:50.237Z,99.90
2019-05-15T04:09:19.802Z,99.90
2019-05-15T04:11:49.947Z,99.90
2019-05-15T04:14:19.632Z,99.90
2019-05-15T04:16:52.908Z,99.90
2019-05-15T04:19:22.391Z,99.90
2019-05-15T04:25:18.901Z,99.90
2019-05-15T04:27:49.266Z,99.90
2019-05-15T04:30:19.202Z,99.90
2019-05-15T04:32:48.950Z,99.90
2019-05-15T04:35:19.746Z,99.90
2019-05-15T04:41:12.985Z,99.90
2019-05-15T04:43:45.190Z,99.90
2019-05-15T04:46:13.669Z,99.90
2019-05-15T04:48:44.189Z,99.90
2019-05-15T04:51:13.680Z,99.90
2019-05-15T04:53:43.209Z,99.90
2019-05-15T04:56:12.675Z,99.90
2019-05-15T04:58:42.112Z,99.90
2019-05-15T05:01:11.557Z,99.90
2019-05-15T05:03:41.030Z,99.90
2019-05-15T05:06:11.784Z,99.90
2019-05-15T05:08:41.220Z,99.90
2019-05-15T05:11:10.709Z,99.90
2019-05-15T05:13:40.145Z,99.90
2019-05-15T05:19:33.059Z,99.90
2019-05-15T05:25:38.852Z,99.90
2019-05-15T05:28:08.794Z,99.90
2019-05-15T05:30:38.644Z,99.90
2019-05-15T05:33:08.574Z,99.90
2019-05-15T05:35:38.753Z,99.90
2019-05-15T05:38:08.340Z,99.90
2019-05-15T05:40:38.435Z,99.90
2019-05-15T05:43:09.431Z,99.90
2019-05-15T05:45:39.183Z,99.90
2019-05-15T05:48:08.902Z,99.90
2019-05-15T05:50:43.881Z,99.90
2019-05-15T05:53:12.083Z,99.90
2019-05-15T05:55:41.544Z,99.90
2019-05-15T05:58:10.978Z,99.90
2019-05-15T06:00:43.063Z,99.90
2019-05-15T06:03:12.511Z,99.90
2019-05-15T06:05:42.444Z,99.90
2019-05-15T06:08:12.074Z,99.90
2019-05-15T06:10:41.529Z,99.90
2019-05-15T06:13:10.987Z,99.90
2019-05-15T06:15:40.473Z,99.90
2019-05-15T06:18:09.945Z,99.90
2019-05-15T06:23:55.638Z,99.90
2019-05-15T06:26:22.138Z,99.90
2019-05-15T06:32:15.335Z,99.90
2019-05-15T06:34:44.787Z,99.90
2019-05-15T06:37:14.235Z,99.90
2019-05-15T06:39:43.711Z,99.90
2019-05-15T06:42:14.225Z,99.90
2019-05-15T06:44:43.703Z,99.90
2019-05-15T06:47:13.175Z,99.90
2019-05-15T06:49:42.626Z,99.90
2019-05-15T06:52:12.060Z,99.90
2019-05-15T06:54:41.596Z,99.90
2019-05-15T06:57:11.039Z,99.90
2019-05-15T06:59:40.498Z,99.90
2019-05-15T07:02:09.934Z,99.90
2019-05-15T07:04:39.403Z,99.90
2019-05-15T07:07:11.112Z,99.90
2019-05-15T07:09:39.953Z,99.90
2019-05-15T07:12:11.039Z,99.90
2019-05-15T07:14:40.572Z,99.90
2019-05-15T07:20:48.618Z,99.90
2019-05-15T07:23:18.622Z,99.40
2019-05-15T07:25:49.731Z,99.90
2019-05-15T07:28:19.362Z,99.90
2019-05-15T07:30:49.628Z,99.90
2019-05-15T07:33:35.378Z,99.30
2019-05-15T07:39:04.711Z,99.00
2019-05-15T07:41:34.179Z,98.60
2019-05-15T07:47:39.716Z,98.90
2019-05-15T07:50:11.691Z,99.00
2019-05-15T07:52:41.307Z,97.40
2019-05-15T07:55:12.589Z,97.70
2019-05-15T07:57:42.128Z,95.50
2019-05-15T08:00:13.643Z,95.80
2019-05-15T08:02:43.151Z,96.80
2019-05-15T08:05:13.643Z,95.80
2019-05-15T08:07:43.213Z,95.80
2019-05-15T08:10:12.887Z,96.20
2019-05-15T08:12:42.431Z,95.60
2019-05-15T08:15:15.466Z,94.90
2019-05-15T08:18:00.109Z,94.40
2019-05-15T08:20:18.482Z,93.30
2019-05-15T08:22:48.884Z,93.10
2019-05-15T08:25:30.564Z,92.70
2019-05-15T08:27:50.450Z,92.10
2019-05-15T08:30:21.348Z,91.50
2019-05-15T08:32:51.678Z,88.90
2019-05-15T08:35:22.481Z,90.80
2019-05-15T08:37:52.730Z,91.80
2019-05-15T08:40:22.311Z,91.90
2019-05-15T08:42:56.596Z,93.30
2019-05-15T08:45:23.035Z,91.80
2019-05-15T08:47:52.489Z,89.40
2019-05-15T09:11:58.791Z,83.00
2019-05-15T09:14:28.605Z,82.30
2019-05-15T09:16:59.243Z,82.20
2019-05-15T09:19:28.704Z,75.40
2019-05-15T09:21:58.622Z,74.10
2019-05-15T09:24:29.367Z,74.10
2019-05-15T09:26:59.485Z,73.80
2019-05-15T09:29:29.185Z,70.50
2019-05-15T09:31:58.973Z,72.90
2019-05-15T09:34:46.332Z,73.20
2019-05-15T09:37:00.149Z,77.00
2019-05-15T09:39:29.839Z,76.80
2019-05-15T09:41:59.278Z,78.20
2019-05-15T09:44:28.724Z,74.70
2019-05-15T09:46:58.562Z,73.70
2019-05-15T09:49:31.163Z,73.30
2019-05-15T09:52:00.662Z,71.70
2019-05-15T09:54:30.192Z,71.60
2019-05-15T09:56:59.692Z,71.70
2019-05-15T09:59:29.154Z,72.40
2019-05-15T10:01:59.042Z,72.30
2019-05-15T10:04:29.134Z,71.40
2019-05-15T10:06:59.790Z,74.20
2019-05-15T10:09:29.287Z,71.00
2019-05-15T10:11:58.816Z,70.80
2019-05-15T10:14:29.634Z,70.80
2019-05-15T10:16:59.177Z,69.00
2019-05-15T10:19:29.121Z,71.50
2019-05-15T10:21:59.511Z,69.50
2019-05-15T10:24:29.180Z,70.00
2019-05-15T10:26:58.556Z,69.80
2019-05-15T10:29:28.193Z,71.00
2019-05-15T10:31:57.723Z,68.50
2019-05-15T10:34:28.918Z,68.70
2019-05-15T10:36:58.881Z,70.90
2019-05-15T10:39:28.884Z,70.40
2019-05-15T10:41:58.537Z,69.70
2019-05-15T10:44:28.861Z,65.80
2019-05-15T10:46:58.553Z,67.20
2019-05-15T10:49:28.381Z,67.00
2019-05-15T10:51:57.791Z,66.60
2019-05-15T10:54:28.962Z,67.20
2019-05-15T10:57:00.738Z,68.10
2019-05-15T10:59:29.307Z,65.10
2019-05-15T11:01:59.154Z,67.80
2019-05-15T11:04:28.973Z,66.90
2019-05-15T11:06:58.600Z,64.20
2019-05-15T11:09:28.655Z,63.50
2019-05-15T11:11:58.510Z,65.70
2019-05-15T11:14:28.631Z,61.00
2019-05-15T11:16:58.962Z,60.00
2019-05-15T11:19:35.668Z,63.20
2019-05-15T11:21:59.580Z,63.80
2019-05-15T11:24:32.298Z,59.70
2019-05-15T11:27:00.075Z,62.00
2019-05-15T11:29:29.731Z,61.40
2019-05-15T11:32:01.978Z,60.70
2019-05-15T11:34:31.354Z,59.80
2019-05-15T11:37:00.720Z,61.20
2019-05-15T11:39:30.144Z,61.80
2019-05-15T11:41:59.511Z,60.40
2019-05-15T11:44:29.225Z,62.70
2019-05-15T11:46:58.837Z,62.80
2019-05-15T11:49:29.034Z,62.00
2019-05-15T11:52:00.679Z,60.50
2019-05-15T11:54:29.979Z,58.90
2019-05-15T11:56:59.794Z,60.00
2019-05-15T11:59:30.060Z,61.40
2019-05-15T12:01:59.775Z,59.50
2019-05-15T12:04:33.813Z,61.20
2019-05-15T12:07:02.677Z,61.70
2019-05-15T12:09:31.266Z,59.00
2019-05-15T12:12:00.810Z,60.80
2019-05-15T12:14:30.308Z,59.40
2019-05-15T12:17:06.888Z,60.20
2019-05-15T12:19:30.807Z,58.20
2019-05-15T12:22:00.179Z,59.90
2019-05-15T12:24:35.103Z,57.10
2019-05-15T12:27:13.945Z,59.80
2019-05-15T12:29:31.868Z,56.30
2019-05-15T12:32:21.858Z,56.90
2019-05-15T12:34:32.490Z,56.50
2019-05-15T12:37:01.918Z,57.10
2019-05-15T12:39:31.371Z,56.40
2019-05-15T13:02:08.560Z,55.30
2019-05-15T13:04:38.994Z,54.40
2019-05-15T13:07:13.799Z,54.30
2019-05-15T13:09:39.935Z,54.40
2019-05-15T13:12:09.292Z,52.80
2019-05-15T13:14:39.034Z,55.10
2019-05-15T13:17:08.696Z,53.60
2019-05-15T13:19:38.780Z,53.50
2019-05-15T13:22:17.811Z,54.20
2019-05-15T13:24:39.519Z,53.00
2019-05-15T13:27:08.980Z,52.40
2019-05-15T13:29:38.332Z,50.80
2019-05-15T13:32:08.155Z,50.60
2019-05-15T13:34:38.905Z,52.20
2019-05-15T13:37:08.916Z,49.90
2019-05-15T13:39:39.208Z,50.00
2019-05-15T13:42:09.438Z,51.60
2019-05-15T13:44:38.964Z,51.90
2019-05-15T13:47:08.823Z,48.30
2019-05-15T13:49:38.695Z,50.70
2019-05-15T13:52:08.647Z,51.50
2019-05-15T13:54:39.284Z,49.50
2019-05-15T13:57:09.489Z,47.70
2019-05-15T13:59:39.330Z,47.20
2019-05-15T14:02:08.918Z,46.50
2019-05-15T14:04:38.706Z,47.50
2019-05-15T14:07:08.719Z,48.00
2019-05-15T14:09:44.473Z,47.60
2019-05-15T14:12:12.330Z,46.80
2019-05-15T14:14:40.752Z,47.80
2019-05-15T14:17:10.135Z,46.20
2019-05-15T14:19:39.548Z,46.30
2019-05-15T14:22:08.909Z,46.00
2019-05-15T14:24:38.427Z,45.20
2019-05-15T14:27:08.709Z,44.70
2019-05-15T14:29:39.399Z,42.80
2019-05-15T14:32:08.748Z,44.90
2019-05-15T14:34:38.199Z,45.00
2019-05-15T14:37:08.815Z,44.40
2019-05-15T14:39:38.357Z,43.00
2019-05-15T14:42:09.032Z,41.00
2019-05-15T14:44:39.006Z,42.00
2019-05-15T14:47:08.977Z,42.70
2019-05-15T14:49:44.803Z,40.40
2019-05-15T14:52:09.670Z,39.30
2019-05-15T14:54:39.323Z,39.30
2019-05-15T14:57:08.870Z,39.50
2019-05-15T14:59:38.353Z,38.70
2019-05-15T15:02:09.138Z,38.40
2019-05-15T15:04:39.198Z,38.60
2019-05-15T15:07:08.923Z,38.30
2019-05-15T15:09:38.311Z,39.10
2019-05-15T15:12:08.251Z,40.50
2019-05-15T15:14:39.387Z,38.60
2019-05-15T15:17:08.826Z,40.70
2019-05-15T15:19:38.843Z,38.60
2019-05-15T15:22:08.843Z,40.10
2019-05-15T15:24:38.949Z,38.30
2019-05-15T15:27:08.795Z,39.50
2019-05-15T15:29:38.827Z,39.50
2019-05-15T15:32:08.623Z,40.30
2019-05-15T15:34:38.744Z,39.20
2019-05-15T15:37:09.456Z,38.40
2019-05-15T15:39:38.856Z,38.60
2019-05-15T15:42:09.427Z,37.70
2019-05-15T15:44:38.919Z,37.20
2019-05-15T15:47:08.757Z,38.20
2019-05-15T15:49:39.364Z,38.20
2019-05-15T15:52:08.967Z,37.50
2019-05-15T15:54:39.460Z,38.20
2019-05-15T15:57:09.671Z,36.80
2019-05-15T15:59:39.140Z,35.80
2019-05-15T16:02:09.040Z,35.70
2019-05-15T16:04:39.186Z,35.90
2019-05-15T16:07:09.578Z,38.20
2019-05-15T16:09:39.267Z,35.00
2019-05-15T16:12:09.818Z,35.60
2019-05-15T16:14:39.341Z,37.60
2019-05-15T16:17:08.832Z,35.00
2019-05-15T16:19:38.883Z,35.80
2019-05-15T16:22:08.890Z,35.50
2019-05-15T16:24:39.707Z,35.00
2019-05-15T16:27:09.812Z,38.20
2019-05-15T16:29:39.489Z,34.70
2019-05-15T16:32:08.913Z,36.40
2019-05-15T16:34:39.280Z,34.30
2019-05-15T16:37:09.287Z,34.10
2019-05-15T16:39:38.651Z,34.80
2019-05-15T16:42:08.076Z,33.90
2019-05-15T16:44:38.487Z,33.80
2019-05-15T16:47:08.571Z,34.40
2019-05-15T16:49:39.352Z,32.30
2019-05-15T16:52:09.355Z,34.10
2019-05-15T16:54:38.875Z,36.50
2019-05-15T16:57:09.975Z,31.90
2019-05-15T16:59:39.421Z,34.50
2019-05-15T17:02:09.048Z,32.80
2019-05-15T17:04:38.599Z,32.70
2019-05-15T17:07:08.138Z,33.10
2019-05-15T17:09:38.853Z,33.60
2019-05-15T17:12:08.876Z,35.40
2019-05-15T17:14:38.978Z,33.10
2019-05-15T17:17:08.453Z,32.20
2019-05-15T17:19:37.886Z,31.40
2019-05-15T17:22:09.498Z,31.60
2019-05-15T17:24:38.866Z,32.60
2019-05-15T17:27:12.036Z,32.70
2019-05-15T17:29:39.513Z,33.20
2019-05-15T17:32:08.967Z,31.10
2019-05-15T17:34:38.409Z,31.60
2019-05-15T17:37:07.966Z,31.20
2019-05-15T17:39:38.914Z,32.50
2019-05-15T17:42:08.560Z,30.80
2019-05-15T17:44:50.810Z,30.10
2019-05-15T17:47:20.346Z,31.90
2019-05-15T17:49:49.883Z,32.10
2019-05-15T17:52:19.331Z,31.20
2019-05-15T17:54:49.254Z,30.70
2019-05-15T17:57:19.477Z,31.30
2019-05-15T17:59:49.229Z,30.60
2019-05-15T18:02:19.070Z,30.20
2019-05-15T18:04:48.667Z,31.30
2019-05-15T18:07:18.021Z,32.10
2019-05-15T18:09:53.420Z,33.30
2019-05-15T18:12:18.875Z,32.10
2019-05-15T18:14:48.303Z,31.60
2019-05-15T18:17:18.668Z,31.50
2019-05-15T18:19:48.776Z,31.00
2019-05-15T18:22:18.529Z,31.00
2019-05-15T18:24:48.702Z,32.00
2019-05-15T18:27:18.654Z,31.90
2019-05-15T18:29:48.392Z,32.00
2019-05-15T18:32:18.912Z,32.10
2019-05-15T18:34:49.119Z,32.70
2019-05-15T18:37:19.206Z,34.20
2019-05-15T18:40:02.186Z,35.20
2019-05-15T18:42:20.290Z,35.70
2019-05-15T18:44:50.087Z,35.50
2019-05-15T18:47:21.148Z,35.40
2019-05-15T18:50:03.969Z,34.90
2019-05-15T18:52:21.866Z,36.10
2019-05-15T18:54:51.727Z,37.80
2019-05-15T18:57:21.156Z,39.20
2019-05-15T18:59:50.613Z,40.50
2019-05-15T19:02:20.328Z,41.30
2019-05-15T19:04:52.332Z,41.60
2019-05-15T19:07:21.767Z,42.30
2019-05-15T19:09:51.494Z,42.70
2019-05-15T19:12:20.927Z,43.60
2019-05-15T19:14:50.356Z,44.20
2019-05-15T19:17:19.804Z,43.90
2019-05-15T19:19:49.307Z,43.80
2019-05-15T19:22:19.278Z,44.20
2019-05-15T19:24:49.038Z,44.70
2019-05-15T19:27:18.906Z,45.60
2019-05-15T19:29:49.451Z,45.70
2019-05-15T19:32:18.892Z,45.90
2019-05-15T19:34:48.486Z,46.50
2019-05-15T19:37:18.308Z,47.10
2019-05-15T19:39:48.055Z,47.20
2019-05-15T19:42:18.257Z,48.20
2019-05-15T19:44:49.179Z,48.60
2019-05-15T19:47:19.711Z,49.10
2019-05-15T19:49:49.165Z,49.50
2019-05-15T19:52:18.668Z,50.30
2019-05-15T19:54:48.573Z,50.50
2019-05-15T19:57:18.800Z,51.80
2019-05-15T19:59:48.793Z,51.00
2019-05-15T20:02:18.503Z,51.10
2019-05-15T20:04:49.094Z,51.30
2019-05-15T20:07:19.938Z,51.50
2019-05-15T20:09:49.853Z,51.80
2019-05-15T20:12:19.463Z,52.50
2019-05-15T20:14:49.969Z,52.90
2019-05-15T20:17:19.424Z,52.50
2019-05-15T20:19:49.332Z,52.70
2019-05-15T20:22:19.135Z,53.50
2019-05-15T20:24:48.559Z,54.60
2019-05-15T20:27:18.766Z,54.60
2019-05-15T20:29:48.732Z,55.60
2019-05-15T20:32:18.582Z,54.50
2019-05-15T20:34:48.390Z,54.40
2019-05-15T20:37:19.035Z,54.90
2019-05-15T20:39:49.281Z,56.40
2019-05-15T20:42:19.019Z,56.80
2019-05-15T20:44:49.011Z,56.20
2019-05-15T20:47:18.881Z,56.10
2019-05-15T20:49:48.731Z,56.20
2019-05-15T20:52:21.789Z,56.60
2019-05-15T20:54:50.414Z,57.20
2019-05-15T20:57:19.840Z,57.20
2019-05-15T20:59:49.284Z,57.80
2019-05-15T21:02:18.882Z,59.00
2019-05-15T21:04:48.588Z,58.30
2019-05-15T21:07:27.547Z,58.40
2019-05-15T21:09:49.032Z,59.00
2019-05-15T21:12:18.864Z,60.20
2019-05-15T21:14:48.366Z,59.50
2019-05-15T21:17:19.846Z,60.00
2019-05-15T21:19:49.842Z,61.00
2019-05-15T21:22:19.248Z,61.20
2019-05-15T21:24:48.764Z,61.50
2019-05-15T21:27:23.821Z,61.80
2019-05-15T21:29:49.347Z,62.10
2019-05-15T21:32:19.746Z,62.60
2019-05-15T21:34:49.529Z,62.30
2019-05-15T21:37:20.253Z,62.90
2019-05-15T21:39:49.747Z,63.20
2019-05-15T21:42:19.176Z,63.20
2019-05-15T21:44:48.971Z,64.00
2019-05-15T21:47:18.891Z,66.40
2019-05-15T21:49:48.821Z,67.30
2019-05-15T21:52:20.522Z,70.50
2019-05-15T21:54:50.419Z,67.70
2019-05-15T21:57:33.046Z,66.80
2019-05-15T21:59:51.413Z,67.10
2019-05-15T22:02:20.915Z,67.10
2019-05-15T22:04:55.684Z,68.70
2019-05-15T22:07:21.931Z,69.70
2019-05-15T22:09:51.626Z,67.00
2019-05-15T22:12:21.047Z,67.00
2019-05-15T22:14:50.758Z,67.40
2019-05-15T22:17:20.384Z,67.40
2019-05-15T22:19:49.754Z,67.60
2019-05-15T22:22:19.574Z,67.60
2019-05-15T22:24:49.045Z,67.50
2019-05-15T22:27:21.140Z,67.90
2019-05-15T22:29:49.556Z,68.20
2019-05-15T22:32:19.946Z,68.70
2019-05-15T22:35:05.736Z,68.50
2019-05-15T22:37:21.714Z,69.30
2019-05-15T22:39:51.825Z,69.20
2019-05-15T22:42:21.444Z,70.00
2019-05-15T22:44:52.075Z,69.80
2019-05-15T22:47:21.503Z,70.20
2019-05-15T22:49:50.945Z,70.30
2019-05-15T22:52:20.610Z,70.60
2019-05-15T22:54:50.035Z,70.80
2019-05-15T22:57:19.463Z,71.20
2019-05-15T22:59:48.827Z,71.30
2019-05-15T23:02:18.259Z,71.70
2019-05-15T23:04:47.873Z,72.10
2019-05-15T23:07:18.968Z,72.50
2019-05-15T23:09:49.012Z,74.30
2019-05-15T23:12:19.551Z,73.40
2019-05-15T23:14:48.992Z,75.20
2019-05-15T23:17:18.416Z,75.60
2019-05-15T23:19:48.604Z,76.40
2019-05-15T23:22:18.671Z,74.90
2019-05-15T23:24:48.718Z,74.80
2019-05-15T23:27:18.251Z,74.70
2019-05-15T23:29:49.213Z,75.10
2019-05-15T23:32:18.762Z,75.10
2019-05-15T23:34:49.158Z,74.90
2019-05-15T23:37:18.920Z,75.40
2019-05-15T23:39:48.770Z,76.40
2019-05-15T23:42:18.571Z,77.90
2019-05-15T23:44:48.748Z,80.30
2019-05-15T23:47:18.199Z,81.70
2019-05-15T23:49:48.543Z,82.70
2019-05-15T23:52:19.076Z,83.80
2019-05-15T23:54:48.461Z,85.10
2019-05-15T23:57:18.100Z,86.90
2019-05-15T23:59:47.920Z,89.30
